sensor_id;sensor_type;location;lat;lon;timestamp;pressure;altitude;pressure_sealevel;temperature;humidity
19789;BME280;10054;59.332;18.244;2023-11-21T00:01:45;101323.52;;;0.11;100.00
19789;BME280;10054;59.332;18.244;2023-11-21T00:04:13;101322.23;;;0.10;100.00
19789;BME280;10054;59.332;18.244;2023-11-21T00:06:42;101321.80;;;0.09;100.00
19789;BME280;10054;59.332;18.244;2023-11-21T00:09:13;101330.01;;;0.10;100.00
19789;BME280;10054;59.332;18.244;2023-11-21T00:11:44;101324.38;;;0.12;100.00
19789;BME280;10054;59.332;18.244;2023-11-21T00:14:13;101329.14;;;0.11;100.00
19789;BME280;10054;59.332;18.244;2023-11-21T00:16:42;101332.61;;;0.10;100.00
19789;BME280;10054;59.332;18.244;2023-11-21T00:19:11;101327.85;;;0.09;100.00
19789;BME280;10054;59.332;18.244;2023-11-21T00:21:40;101331.31;;;0.10;100.00
19789;BME280;10054;59.332;18.244;2023-11-21T00:24:12;101332.18;;;0.09;100.00
19789;BME280;10054;59.332;18.244;2023-11-21T00:26:41;101335.21;;;0.08;100.00
19789;BME280;10054;59.332;18.244;2023-11-21T00:29:10;101341.27;;;0.09;100.00
19789;BME280;10054;59.332;18.244;2023-11-21T00:31:39;101342.98;;;0.10;100.00
19789;BME280;10054;59.332;18.244;2023-11-21T00:34:08;101339.09;;;0.10;100.00
19789;BME280;10054;59.332;18.244;2023-11-21T00:36:37;101349.05;;;0.09;100.00
19789;BME280;10054;59.332;18.244;2023-11-21T00:39:06;101351.20;;;0.09;100.00
19789;BME280;10054;59.332;18.244;2023-11-21T00:41:34;101347.73;;;0.10;100.00
19789;BME280;10054;59.332;18.244;2023-11-21T00:44:04;101350.31;;;0.12;100.00
19789;BME280;10054;59.332;18.244;2023-11-21T00:46:34;101347.27;;;0.14;100.00
19789;BME280;10054;59.332;18.244;2023-11-21T00:49:03;101349.41;;;0.17;100.00
19789;BME280;10054;59.332;18.244;2023-11-21T00:51:31;101354.13;;;0.21;100.00
19789;BME280;10054;59.332;18.244;2023-11-21T00:54:00;101354.11;;;0.24;100.00
19789;BME280;10054;59.332;18.244;2023-11-21T00:56:29;101354.53;;;0.25;100.00
19789;BME280;10054;59.332;18.244;2023-11-21T00:58:59;101350.19;;;0.27;100.00
19789;BME280;10054;59.332;18.244;2023-11-21T01:01:28;101352.32;;;0.30;100.00
19789;BME280;10054;59.332;18.244;2023-11-21T01:03:56;101350.59;;;0.31;100.00
19789;BME280;10054;59.332;18.244;2023-11-21T01:06:25;101357.06;;;0.32;100.00
19789;BME280;10054;59.332;18.244;2023-11-21T01:08:54;101354.45;;;0.34;100.00
19789;BME280;10054;59.332;18.244;2023-11-21T01:11:23;101357.46;;;0.37;100.00
19789;BME280;10054;59.332;18.244;2023-11-21T01:13:53;101362.64;;;0.38;100.00
19789;BME280;10054;59.332;18.244;2023-11-21T01:16:22;101363.03;;;0.42;100.00
19789;BME280;10054;59.332;18.244;2023-11-21T01:18:51;101365.20;;;0.41;100.00
19789;BME280;10054;59.332;18.244;2023-11-21T01:21:20;101364.78;;;0.40;100.00
19789;BME280;10054;59.332;18.244;2023-11-21T01:23:50;101362.20;;;0.39;100.00
19789;BME280;10054;59.332;18.244;2023-11-21T01:26:19;101363.95;;;0.37;100.00
19789;BME280;10054;59.332;18.244;2023-11-21T01:28:48;101372.17;;;0.36;100.00
19789;BME280;10054;59.332;18.244;2023-11-21T01:31:16;101372.61;;;0.36;100.00
19789;BME280;10054;59.332;18.244;2023-11-21T01:33:47;101374.34;;;0.35;100.00
19789;BME280;10054;59.332;18.244;2023-11-21T01:36:17;101373.91;;;0.36;100.00
19789;BME280;10054;59.332;18.244;2023-11-21T01:38:46;101374.78;;;0.35;100.00
19789;BME280;10054;59.332;18.244;2023-11-21T01:41:16;101377.81;;;0.34;100.00
19789;BME280;10054;59.332;18.244;2023-11-21T01:43:45;101375.66;;;0.32;100.00
19789;BME280;10054;59.332;18.244;2023-11-21T01:46:14;101384.75;;;0.32;100.00
19789;BME280;10054;59.332;18.244;2023-11-21T01:48:43;101388.64;;;0.32;100.00
19789;BME280;10054;59.332;18.244;2023-11-21T01:51:12;101392.09;;;0.32;100.00
19789;BME280;10054;59.332;18.244;2023-11-21T01:53:41;101391.66;;;0.33;100.00
19789;BME280;10054;59.332;18.244;2023-11-21T01:56:12;101395.98;;;0.32;100.00
19789;BME280;10054;59.332;18.244;2023-11-21T01:58:41;101390.38;;;0.31;100.00
19789;BME280;10054;59.332;18.244;2023-11-21T02:01:11;101394.25;;;0.33;100.00
19789;BME280;10054;59.332;18.244;2023-11-21T02:03:40;101397.70;;;0.35;100.00
19789;BME280;10054;59.332;18.244;2023-11-21T02:06:09;101395.52;;;0.38;100.00
19789;BME280;10054;59.332;18.244;2023-11-21T02:08:37;101399.81;;;0.42;100.00
19789;BME280;10054;59.332;18.244;2023-11-21T02:11:07;101404.56;;;0.42;100.00
19789;BME280;10054;59.332;18.244;2023-11-21T02:13:37;101407.59;;;0.42;100.00
19789;BME280;10054;59.332;18.244;2023-11-21T02:16:06;101401.99;;;0.39;100.00
19789;BME280;10054;59.332;18.244;2023-11-21T02:18:36;101401.58;;;0.37;100.00
19789;BME280;10054;59.332;18.244;2023-11-21T02:21:06;101407.64;;;0.36;100.00
19789;BME280;10054;59.332;18.244;2023-11-21T02:23:35;101401.61;;;0.33;100.00
19789;BME280;10054;59.332;18.244;2023-11-21T02:26:04;101403.34;;;0.33;100.00
19789;BME280;10054;59.332;18.244;2023-11-21T02:28:33;101409.41;;;0.32;100.00
19789;BME280;10054;59.332;18.244;2023-11-21T02:31:02;101420.66;;;0.31;100.00
19789;BME280;10054;59.332;18.244;2023-11-21T02:33:33;101420.66;;;0.31;100.00
19789;BME280;10054;59.332;18.244;2023-11-21T02:36:02;101421.53;;;0.30;100.00
19789;BME280;10054;59.332;18.244;2023-11-21T02:38:31;101425.87;;;0.28;100.00
19789;BME280;10054;59.332;18.244;2023-11-21T02:41:01;101426.30;;;0.27;100.00
19789;BME280;10054;59.332;18.244;2023-11-21T02:43:30;101429.76;;;0.28;100.00
19789;BME280;10054;59.332;18.244;2023-11-21T02:45:59;101429.33;;;0.27;100.00
19789;BME280;10054;59.332;18.244;2023-11-21T02:48:28;101436.69;;;0.27;100.00
19789;BME280;10054;59.332;18.244;2023-11-21T02:50:58;101437.98;;;0.27;100.00
19789;BME280;10054;59.332;18.244;2023-11-21T02:53:27;101442.72;;;0.29;100.00
19789;BME280;10054;59.332;18.244;2023-11-21T02:55:55;101441.86;;;0.29;100.00
19789;BME280;10054;59.332;18.244;2023-11-21T02:58:26;101446.17;;;0.31;100.00
19789;BME280;10054;59.332;18.244;2023-11-21T03:00:55;101448.33;;;0.32;100.00
19789;BME280;10054;59.332;18.244;2023-11-21T03:03:23;101447.03;;;0.32;100.00
19789;BME280;10054;59.332;18.244;2023-11-21T03:05:53;101450.05;;;0.33;100.00
19789;BME280;10054;59.332;18.244;2023-11-21T03:08:22;101447.89;;;0.32;100.00
19789;BME280;10054;59.332;18.244;2023-11-21T03:10:51;101451.78;;;0.32;100.00
19789;BME280;10054;59.332;18.244;2023-11-21T03:13:20;101454.37;;;0.32;100.00
19789;BME280;10054;59.332;18.244;2023-11-21T03:15:49;101460.44;;;0.33;100.00
19789;BME280;10054;59.332;18.244;2023-11-21T03:18:17;101463.45;;;0.34;100.00
19789;BME280;10054;59.332;18.244;2023-11-21T03:20:46;101466.89;;;0.38;100.00
19789;BME280;10054;59.332;18.244;2023-11-21T03:23:15;101468.59;;;0.42;100.00
19789;BME280;10054;59.332;18.244;2023-11-21T03:25:44;101464.28;;;0.39;100.00
19789;BME280;10054;59.332;18.244;2023-11-21T03:28:13;101475.09;;;0.39;100.00
19789;BME280;10054;59.332;18.244;2023-11-21T03:30:42;101475.55;;;0.35;100.00
19789;BME280;10054;59.332;18.244;2023-11-21T03:33:10;101478.59;;;0.33;100.00
19789;BME280;10054;59.332;18.244;2023-11-21T03:35:40;101486.39;;;0.31;100.00
19789;BME280;10054;59.332;18.244;2023-11-21T03:38:10;101490.30;;;0.30;100.00
19789;BME280;10054;59.332;18.244;2023-11-21T03:40:40;101489.88;;;0.29;100.00
19789;BME280;10054;59.332;18.244;2023-11-21T03:43:08;101498.09;;;0.28;100.00
19789;BME280;10054;59.332;18.244;2023-11-21T03:45:38;101498.09;;;0.27;100.00
19789;BME280;10054;59.332;18.244;2023-11-21T03:48:08;101498.09;;;0.27;100.00
19789;BME280;10054;59.332;18.244;2023-11-21T03:50:38;101503.70;;;0.29;100.00
19789;BME280;10054;59.332;18.244;2023-11-21T03:53:07;101508.46;;;0.30;100.00
19789;BME280;10054;59.332;18.244;2023-11-21T03:55:36;101507.16;;;0.31;100.00
19789;BME280;10054;59.332;18.244;2023-11-21T03:58:05;101502.39;;;0.32;100.00
19789;BME280;10054;59.332;18.244;2023-11-21T04:00:34;101505.84;;;0.35;100.00
19789;BME280;10054;59.332;18.244;2023-11-21T04:03:03;101507.56;;;0.36;100.00
19789;BME280;10054;59.332;18.244;2023-11-21T04:05:32;101513.18;;;0.37;100.00
19789;BME280;10054;59.332;18.244;2023-11-21T04:08:01;101517.91;;;0.40;100.00
19789;BME280;10054;59.332;18.244;2023-11-21T04:10:30;101521.35;;;0.44;100.00
19789;BME280;10054;59.332;18.244;2023-11-21T04:12:59;101523.08;;;0.45;100.00
19789;BME280;10054;59.332;18.244;2023-11-21T04:15:28;101520.03;;;0.48;100.00
19789;BME280;10054;59.332;18.244;2023-11-21T04:17:58;101526.07;;;0.50;100.00
19789;BME280;10054;59.332;18.244;2023-11-21T04:20:27;101520.88;;;0.50;100.00
19789;BME280;10054;59.332;18.244;2023-11-21T04:22:56;101526.49;;;0.51;100.00
19789;BME280;10054;59.332;18.244;2023-11-21T04:25:24;101531.66;;;0.54;100.00
19789;BME280;10054;59.332;18.244;2023-11-21T04:27:54;101524.30;;;0.55;100.00
19789;BME280;10054;59.332;18.244;2023-11-21T04:30:23;101528.63;;;0.55;100.00
19789;BME280;10054;59.332;18.244;2023-11-21T04:32:52;101532.95;;;0.56;100.00
19789;BME280;10054;59.332;18.244;2023-11-21T04:35:21;101535.97;;;0.58;100.00
19789;BME280;10054;59.332;18.244;2023-11-21T04:37:50;101541.97;;;0.67;100.00
19789;BME280;10054;59.332;18.244;2023-11-21T04:40:18;101545.84;;;0.70;100.00
19789;BME280;10054;59.332;18.244;2023-11-21T04:42:48;101552.36;;;0.67;100.00
19789;BME280;10054;59.332;18.244;2023-11-21T04:45:17;101543.71;;;0.64;100.00
19789;BME280;10054;59.332;18.244;2023-11-21T04:47:46;101548.92;;;0.63;100.00
19789;BME280;10054;59.332;18.244;2023-11-21T04:50:14;101551.09;;;0.62;100.00
19789;BME280;10054;59.332;18.244;2023-11-21T04:52:43;101553.69;;;0.62;100.00
19789;BME280;10054;59.332;18.244;2023-11-21T04:55:12;101551.09;;;0.60;100.00
19789;BME280;10054;59.332;18.244;2023-11-21T04:57:41;101558.45;;;0.61;100.00
19789;BME280;10054;59.332;18.244;2023-11-21T05:00:11;101554.55;;;0.61;100.00
19789;BME280;10054;59.332;18.244;2023-11-21T05:02:41;101561.47;;;0.62;100.00
19789;BME280;10054;59.332;18.244;2023-11-21T05:05:11;101561.04;;;0.62;100.00
19789;BME280;10054;59.332;18.244;2023-11-21T05:07:41;101570.55;;;0.63;100.00
19789;BME280;10054;59.332;18.244;2023-11-21T05:10:10;101573.15;;;0.63;100.00
19789;BME280;10054;59.332;18.244;2023-11-21T05:12:43;101568.38;;;0.64;100.00
19789;BME280;10054;59.332;18.244;2023-11-21T05:15:14;101572.70;;;0.65;100.00
19789;BME280;10054;59.332;18.244;2023-11-21T05:17:43;101577.02;;;0.68;100.00
19789;BME280;10054;59.332;18.244;2023-11-21T05:20:13;101582.63;;;0.69;100.00
19789;BME280;10054;59.332;18.244;2023-11-21T05:22:44;101585.22;;;0.71;100.00
19789;BME280;10054;59.332;18.244;2023-11-21T05:25:13;101593.44;;;0.72;100.00
19789;BME280;10054;59.332;18.244;2023-11-21T05:27:42;101592.09;;;0.75;100.00
19789;BME280;10054;59.332;18.244;2023-11-21T05:30:11;101589.88;;;0.80;100.00
19789;BME280;10054;59.332;18.244;2023-11-21T05:32:41;101596.37;;;0.82;100.00
19789;BME280;10054;59.332;18.244;2023-11-21T05:35:13;101597.23;;;0.81;100.00
19789;BME280;10054;59.332;18.244;2023-11-21T05:37:44;101599.41;;;0.80;100.00
19789;BME280;10054;59.332;18.244;2023-11-21T05:40:14;101605.03;;;0.81;100.00
19789;BME280;10054;59.332;18.244;2023-11-21T05:42:43;101604.17;;;0.80;100.00
19789;BME280;10054;59.332;18.244;2023-11-21T05:45:13;101603.73;;;0.81;100.00
19789;BME280;10054;59.332;18.244;2023-11-21T05:47:44;101605.45;;;0.82;100.00
19789;BME280;10054;59.332;18.244;2023-11-21T05:50:15;101613.23;;;0.83;100.00
19789;BME280;10054;59.332;18.244;2023-11-21T05:52:45;101613.23;;;0.83;100.00
19789;BME280;10054;59.332;18.244;2023-11-21T05:55:14;101618.44;;;0.83;100.00
19789;BME280;10054;59.332;18.244;2023-11-21T05:57:44;101623.63;;;0.85;100.00
19789;BME280;10054;59.332;18.244;2023-11-21T06:00:14;101622.32;;;0.85;100.00
19789;BME280;10054;59.332;18.244;2023-11-21T06:02:44;101626.64;;;0.86;100.00
19789;BME280;10054;59.332;18.244;2023-11-21T06:05:13;101631.39;;;0.88;100.00
19789;BME280;10054;59.332;18.244;2023-11-21T06:07:42;101631.39;;;0.88;100.00
19789;BME280;10054;59.332;18.244;2023-11-21T06:10:11;101627.48;;;0.91;100.00
19789;BME280;10054;59.332;18.244;2023-11-21T06:12:41;101634.39;;;0.92;100.00
19789;BME280;10054;59.332;18.244;2023-11-21T06:15:11;101636.56;;;0.92;100.00
19789;BME280;10054;59.332;18.244;2023-11-21T06:17:43;101636.98;;;0.95;100.00
19789;BME280;10054;59.332;18.244;2023-11-21T06:20:14;101636.53;;;0.95;100.00
19789;BME280;10054;59.332;18.244;2023-11-21T06:22:43;101642.56;;;1.01;100.00
19789;BME280;10054;59.332;18.244;2023-11-21T06:25:12;101646.89;;;1.02;100.00
19789;BME280;10054;59.332;18.244;2023-11-21T06:27:48;101651.22;;;1.01;100.00
19789;BME280;10054;59.332;18.244;2023-11-21T06:30:14;101649.94;;;0.99;100.00
19789;BME280;10054;59.332;18.244;2023-11-21T06:32:43;101659.03;;;0.98;100.00
19789;BME280;10054;59.332;18.244;2023-11-21T06:35:15;101659.47;;;0.97;100.00
19789;BME280;10054;59.332;18.244;2023-11-21T06:37:44;101664.23;;;0.98;100.00
19789;BME280;10054;59.332;18.244;2023-11-21T06:40:16;101669.87;;;0.97;100.00
19789;BME280;10054;59.332;18.244;2023-11-21T06:42:46;101671.16;;;0.99;100.00
19789;BME280;10054;59.332;18.244;2023-11-21T06:45:16;101677.22;;;0.98;100.00
19789;BME280;10054;59.332;18.244;2023-11-21T06:47:45;101677.65;;;0.99;100.00
19789;BME280;10054;59.332;18.244;2023-11-21T06:50:14;101680.23;;;1.01;100.00
19789;BME280;10054;59.332;18.244;2023-11-21T06:52:43;101685.44;;;1.01;100.00
19789;BME280;10054;59.332;18.244;2023-11-21T06:55:12;101687.17;;;1.00;100.00
19789;BME280;10054;59.332;18.244;2023-11-21T06:57:41;101681.98;;;1.00;100.00
19789;BME280;10054;59.332;18.244;2023-11-21T07:00:11;101691.92;;;1.02;100.00
19789;BME280;10054;59.332;18.244;2023-11-21T07:02:40;101694.08;;;1.03;100.00
19789;BME280;10054;59.332;18.244;2023-11-21T07:05:09;101698.84;;;1.03;100.00
19789;BME280;10054;59.332;18.244;2023-11-21T07:07:38;101707.50;;;1.04;100.00
19789;BME280;10054;59.332;18.244;2023-11-21T07:10:08;101712.70;;;1.04;100.00
19789;BME280;10054;59.332;18.244;2023-11-21T07:12:36;101710.97;;;1.04;100.00
19789;BME280;10054;59.332;18.244;2023-11-21T07:15:06;101713.14;;;1.03;100.00
19789;BME280;10054;59.332;18.244;2023-11-21T07:17:36;101713.56;;;1.04;100.00
19789;BME280;10054;59.332;18.244;2023-11-21T07:20:06;101715.72;;;1.05;100.00
19789;BME280;10054;59.332;18.244;2023-11-21T07:22:35;101721.78;;;1.05;100.00
19789;BME280;10054;59.332;18.244;2023-11-21T07:25:04;101717.00;;;1.08;100.00
19789;BME280;10054;59.332;18.244;2023-11-21T07:27:34;101716.57;;;1.08;100.00
19789;BME280;10054;59.332;18.244;2023-11-21T07:30:05;101719.17;;;1.08;100.00
19789;BME280;10054;59.332;18.244;2023-11-21T07:32:36;101717.00;;;1.08;100.00
19789;BME280;10054;59.332;18.244;2023-11-21T07:35:07;101719.18;;;1.07;100.00
19789;BME280;10054;59.332;18.244;2023-11-21T07:37:36;101719.17;;;1.08;100.00
19789;BME280;10054;59.332;18.244;2023-11-21T07:40:05;101717.44;;;1.09;100.00
19789;BME280;10054;59.332;18.244;2023-11-21T07:42:35;101719.17;;;1.08;100.00
19789;BME280;10054;59.332;18.244;2023-11-21T07:45:06;101720.46;;;1.10;100.00
19789;BME280;10054;59.332;18.244;2023-11-21T07:47:35;101720.45;;;1.11;100.00
19789;BME280;10054;59.332;18.244;2023-11-21T07:50:04;101720.02;;;1.12;100.00
19789;BME280;10054;59.332;18.244;2023-11-21T07:52:34;101729.53;;;1.13;100.00
19789;BME280;10054;59.332;18.244;2023-11-21T07:55:04;101723.91;;;1.13;100.00
19789;BME280;10054;59.332;18.244;2023-11-21T07:57:33;101728.66;;;1.15;100.00
19789;BME280;10054;59.332;18.244;2023-11-21T08:00:01;101733.84;;;1.17;100.00
19789;BME280;10054;59.332;18.244;2023-11-21T08:02:32;101734.70;;;1.17;100.00
19789;BME280;10054;59.332;18.244;2023-11-21T08:05:02;101736.87;;;1.18;100.00
19789;BME280;10054;59.332;18.244;2023-11-21T08:07:31;101735.14;;;1.18;100.00
19789;BME280;10054;59.332;18.244;2023-11-21T08:10:00;101742.05;;;1.21;100.00
19789;BME280;10054;59.332;18.244;2023-11-21T08:12:29;101743.36;;;1.19;100.00
19789;BME280;10054;59.332;18.244;2023-11-21T08:14:57;101747.26;;;1.19;100.00
19789;BME280;10054;59.332;18.244;2023-11-21T08:17:26;101752.88;;;1.20;100.00
19789;BME280;10054;59.332;18.244;2023-11-21T08:19:55;101755.03;;;1.22;100.00
19789;BME280;10054;59.332;18.244;2023-11-21T08:22:25;101763.27;;;1.22;100.00
19789;BME280;10054;59.332;18.244;2023-11-21T08:24:54;101753.75;;;1.19;100.00
19789;BME280;10054;59.332;18.244;2023-11-21T08:27:23;101760.24;;;1.21;100.00
19789;BME280;10054;59.332;18.244;2023-11-21T08:29:53;101764.58;;;1.20;100.00
19789;BME280;10054;59.332;18.244;2023-11-21T08:32:22;101765.44;;;1.21;100.00
19789;BME280;10054;59.332;18.244;2023-11-21T08:34:51;101767.17;;;1.20;100.00
19789;BME280;10054;59.332;18.244;2023-11-21T08:37:20;101774.55;;;1.19;100.00
19789;BME280;10054;59.332;18.244;2023-11-21T08:39:49;101781.92;;;1.18;100.00
19789;BME280;10054;59.332;18.244;2023-11-21T08:42:17;101785.84;;;1.12;100.00
19789;BME280;10054;59.332;18.244;2023-11-21T08:44:46;101783.27;;;1.09;100.00
19789;BME280;10054;59.332;18.244;2023-11-21T08:47:15;101788.03;;;1.07;100.00
19789;BME280;10054;59.332;18.244;2023-11-21T08:49:44;101798.88;;;1.05;100.00
19789;BME280;10054;59.332;18.244;2023-11-21T08:52:13;101795.00;;;1.00;100.00
19789;BME280;10054;59.332;18.244;2023-11-21T08:54:41;101798.47;;;0.99;100.00
19789;BME280;10054;59.332;18.244;2023-11-21T08:57:11;101804.96;;;0.99;100.00
19789;BME280;10054;59.332;18.244;2023-11-21T08:59:39;101801.52;;;0.94;100.00
19789;BME280;10054;59.332;18.244;2023-11-21T09:02:08;101804.13;;;0.92;100.00
19789;BME280;10054;59.332;18.244;2023-11-21T09:04:37;101814.52;;;0.92;100.00
19789;BME280;10054;59.332;18.244;2023-11-21T09:07:05;101811.04;;;0.95;100.00
19789;BME280;10054;59.332;18.244;2023-11-21T09:09:34;101814.93;;;0.96;100.00
19789;BME280;10054;59.332;18.244;2023-11-21T09:12:03;101815.37;;;0.96;100.00
19789;BME280;10054;59.332;18.244;2023-11-21T09:14:31;101814.06;;;0.96;100.00
19789;BME280;10054;59.332;18.244;2023-11-21T09:17:00;101817.52;;;0.98;100.00
19789;BME280;10054;59.332;18.244;2023-11-21T09:19:29;101818.81;;;1.01;100.00
19789;BME280;10054;59.332;18.244;2023-11-21T09:21:58;101820.97;;;1.03;100.00
19789;BME280;10054;59.332;18.244;2023-11-21T09:24:27;101812.30;;;1.04;100.00
19789;BME280;10054;59.332;18.244;2023-11-21T09:26:56;101815.33;;;1.05;100.00
19789;BME280;10054;59.332;18.244;2023-11-21T09:29:24;101825.72;;;1.07;100.00
19789;BME280;10054;59.332;18.244;2023-11-21T09:31:53;101820.52;;;1.08;100.00
19789;BME280;10054;59.332;18.244;2023-11-21T09:34:22;101819.64;;;1.09;100.00
19789;BME280;10054;59.332;18.244;2023-11-21T09:36:51;101818.34;;;1.11;100.00
19789;BME280;10054;59.332;18.244;2023-11-21T09:39:20;101823.95;;;1.13;100.00
19789;BME280;10054;59.332;18.244;2023-11-21T09:45:03;101833.89;;;1.20;100.00
19789;BME280;10054;59.332;18.244;2023-11-21T09:47:33;101837.77;;;1.24;100.00
19789;BME280;10054;59.332;18.244;2023-11-21T09:50:03;101836.02;;;1.28;100.00
19789;BME280;10054;59.332;18.244;2023-11-21T09:52:49;101842.06;;;1.31;100.00
19789;BME280;10054;59.332;18.244;2023-11-21T09:55:11;101837.30;;;1.31;100.00
19789;BME280;10054;59.332;18.244;2023-11-21T09:57:42;101842.06;;;1.31;100.00
19789;BME280;10054;59.332;18.244;2023-11-21T10:00:12;101847.26;;;1.33;100.00
19789;BME280;10054;59.332;18.244;2023-11-21T10:02:43;101852.02;;;1.34;100.00
19789;BME280;10054;59.332;18.244;2023-11-21T10:05:11;101848.98;;;1.36;100.00
19789;BME280;10054;59.332;18.244;2023-11-21T10:07:47;101849.41;;;1.37;100.00
19789;BME280;10054;59.332;18.244;2023-11-21T10:10:14;101854.60;;;1.38;100.00
19789;BME280;10054;59.332;18.244;2023-11-21T10:12:47;101852.01;;;1.37;100.00
19789;BME280;10054;59.332;18.244;2023-11-21T10:15:17;101854.63;;;1.34;100.00
19789;BME280;10054;59.332;18.244;2023-11-21T10:17:48;101861.55;;;1.35;100.00
19789;BME280;10054;59.332;18.244;2023-11-21T10:20:17;101865.89;;;1.34;100.00
19789;BME280;10054;59.332;18.244;2023-11-21T10:22:47;101864.59;;;1.33;100.00
19789;BME280;10054;59.332;18.244;2023-11-21T10:25:15;101868.92;;;1.34;100.00
19789;BME280;10054;59.332;18.244;2023-11-21T10:27:47;101874.55;;;1.35;100.00
19789;BME280;10054;59.332;18.244;2023-11-21T10:30:18;101861.55;;;1.36;100.00
19789;BME280;10054;59.332;18.244;2023-11-21T10:32:47;101865.88;;;1.37;100.00
19789;BME280;10054;59.332;18.244;2023-11-21T10:35:15;101867.16;;;1.39;100.00
19789;BME280;10054;59.332;18.244;2023-11-21T10:37:44;101864.55;;;1.42;100.00
19789;BME280;10054;59.332;18.244;2023-11-21T10:40:13;101859.35;;;1.42;100.00
19789;BME280;10054;59.332;18.244;2023-11-21T10:42:41;101856.74;;;1.43;100.00
19789;BME280;10054;59.332;18.244;2023-11-21T10:45:10;101862.36;;;1.46;100.00
19789;BME280;10054;59.332;18.244;2023-11-21T10:47:43;101867.56;;;1.46;100.00
19789;BME280;10054;59.332;18.244;2023-11-21T10:50:12;101871.02;;;1.48;100.00
19789;BME280;10054;59.332;18.244;2023-11-21T10:52:42;101872.32;;;1.48;100.00
19789;BME280;10054;59.332;18.244;2023-11-21T10:55:19;101873.14;;;1.50;100.00
19789;BME280;10054;59.332;18.244;2023-11-21T10:57:54;101877.05;;;1.50;100.00
19789;BME280;10054;59.332;18.244;2023-11-21T11:00:24;101883.59;;;1.47;100.00
19789;BME280;10054;59.332;18.244;2023-11-21T11:02:55;101882.72;;;1.48;100.00
19789;BME280;10054;59.332;18.244;2023-11-21T11:05:27;101887.48;;;1.48;100.00
19789;BME280;10054;59.332;18.244;2023-11-21T11:08:05;101882.72;;;1.48;100.00
19789;BME280;10054;59.332;18.244;2023-11-21T11:10:34;101882.72;;;1.48;100.00
19789;BME280;10054;59.332;18.244;2023-11-21T11:13:06;101889.62;;;1.49;100.00
19789;BME280;10054;59.332;18.244;2023-11-21T11:15:35;101895.67;;;1.51;100.00
19789;BME280;10054;59.332;18.244;2023-11-21T11:18:05;101889.17;;;1.51;100.00
19789;BME280;10054;59.332;18.244;2023-11-21T11:20:36;101895.67;;;1.52;100.00
19789;BME280;10054;59.332;18.244;2023-11-21T11:28:29;101903.97;;;1.46;100.00
19789;BME280;10054;59.332;18.244;2023-11-21T11:31:17;101908.30;;;1.47;100.00
19789;BME280;10054;59.332;18.244;2023-11-21T11:34:06;101909.60;;;1.45;100.00
19789;BME280;10054;59.332;18.244;2023-11-21T11:36:37;101908.31;;;1.44;100.00
19789;BME280;10054;59.332;18.244;2023-11-21T11:39:02;101911.34;;;1.45;100.00
19789;BME280;10054;59.332;18.244;2023-11-21T11:41:32;101919.57;;;1.44;100.00
19789;BME280;10054;59.332;18.244;2023-11-21T11:44:02;101923.91;;;1.42;100.00
19789;BME280;10054;59.332;18.244;2023-11-21T11:46:43;101922.61;;;1.44;100.00
19789;BME280;10054;59.332;18.244;2023-11-21T11:49:31;101927.38;;;1.44;100.00
19789;BME280;10054;59.332;18.244;2023-11-21T11:54:55;101937.78;;;1.43;100.00
19789;BME280;10054;59.332;18.244;2023-11-21T11:57:31;101945.58;;;1.44;100.00
19789;BME280;10054;59.332;18.244;2023-11-21T12:00:19;101946.02;;;1.44;100.00
19789;BME280;10054;59.332;18.244;2023-11-21T12:02:54;101953.39;;;1.40;100.00
19789;BME280;10054;59.332;18.244;2023-11-21T12:05:26;101951.66;;;1.39;100.00
19789;BME280;10054;59.332;18.244;2023-11-21T12:07:57;101950.36;;;1.39;100.00
19789;BME280;10054;59.332;18.244;2023-11-21T12:10:27;101954.27;;;1.39;100.00
19789;BME280;10054;59.332;18.244;2023-11-21T12:13:07;101957.29;;;1.40;100.00
19789;BME280;10054;59.332;18.244;2023-11-21T12:15:37;101954.25;;;1.43;100.00
19789;BME280;10054;59.332;18.244;2023-11-21T12:18:07;101953.81;;;1.42;100.00
19789;BME280;10054;59.332;18.244;2023-11-21T12:20:36;101954.25;;;1.40;100.00
19789;BME280;10054;59.332;18.244;2023-11-21T12:23:06;101958.16;;;1.39;100.00
19789;BME280;10054;59.332;18.244;2023-11-21T12:25:36;101960.77;;;1.37;100.00
19789;BME280;10054;59.332;18.244;2023-11-21T12:28:06;101967.28;;;1.33;100.00
19789;BME280;10054;59.332;18.244;2023-11-21T12:30:35;101967.72;;;1.30;100.00
19789;BME280;10054;59.332;18.244;2023-11-21T12:33:05;101966.42;;;1.27;100.00
19789;BME280;10054;59.332;18.244;2023-11-21T12:35:36;101970.33;;;1.24;100.00
19789;BME280;10054;59.332;18.244;2023-11-21T12:38:05;101975.98;;;1.19;100.00
19789;BME280;10054;59.332;18.244;2023-11-21T12:40:33;101972.52;;;1.19;100.00
19789;BME280;10054;59.332;18.244;2023-11-21T12:43:02;101980.75;;;1.18;100.00
19789;BME280;10054;59.332;18.244;2023-11-21T12:45:31;101976.41;;;1.22;100.00
19789;BME280;10054;59.332;18.244;2023-11-21T12:48:02;101984.62;;;1.27;100.00
19789;BME280;10054;59.332;18.244;2023-11-21T12:50:32;101988.51;;;1.34;100.00
19789;BME280;10054;59.332;18.244;2023-11-21T12:53:02;101979.41;;;1.35;100.00
19789;BME280;10054;59.332;18.244;2023-11-21T12:55:33;101981.58;;;1.33;100.00
19789;BME280;10054;59.332;18.244;2023-11-21T12:58:09;101981.59;;;1.28;100.00
19789;BME280;10054;59.332;18.244;2023-11-21T13:00:44;101988.52;;;1.27;100.00
19789;BME280;10054;59.332;18.244;2023-11-21T13:03:15;101989.83;;;1.23;100.00
19789;BME280;10054;59.332;18.244;2023-11-21T13:05:46;101988.97;;;1.19;100.00